Taberg, New York
Current Conditions -  °F | °C
As of 10:04 PM on Thursday 27 Nov 2014 (Local Time) from KRME Reporting Station
Light Snow Light Snow  
Wind Chill: -2°   Ceiling: 900
Heat Index: -2°   Visibility: 4mi
Dew Point: -3°   Wind: 0mph
Humidity: 92%   Direction: NA
Pressure: 30.07"   Gusts: NA
Location:  43.3°N, 75.62°W
Report Text: KRME 280304Z AUTO 00000KT 4SM -SN BR OVC009 M02/M03 A3007 RMK AO2 P0000 T10221033
Loading
Personal Weather Stations






























Interactive Weather Map New forecast layout! Learn more

10-Day Weather Forecast

Advertisements
Track Severe Weather on mobile